Flight Track Log - Related Links

Times and Time Zones

All times are in EDT time to prevent confusion due to time zone crossing. See the ASQ6041 flight status page for this flight to view local times or setup timezone preferences in your user account.

Time Position Orientation Groundspeed Altitude Reporting Facility
EDT Latitude Longitude Course Direction KTS MPH feet Rate Location/Type
Thu 01:52:47 PM 39.7833 -104.6833 251° West 232 267 8,100  Level Denver TRACON
Thu 01:53:47 PM 39.7500 -104.7667 243° Southwest 297 342 9,600 1,000 Climbing Denver TRACON
Thu 01:54:41 PM 39.7500 -104.8833 270° West 348 400 10,000 1,362 Climbing Denver TRACON
Thu 01:56:08 PM 39.7539 -105.0628 272° West 355 409 12,800 1,530 Climbing Denver Center
Thu 01:57:10 PM 39.7111 -105.1811 245° Southwest 362 417 13,800 1,161 Climbing Denver Center
Thu 01:58:00 PM 39.6151 -105.3978 251° West  Level FlightAware Approximate
Thu 01:58:12 PM 39.6658 -105.3036 244° Southwest 375 432 15,200  Level Denver Center
Thu 01:59:14 PM 39.6178 -105.4414 246° West 389 448 16,300 1,016 Climbing Denver Center
Thu 02:00:16 PM 39.5692 -105.5700 244° Southwest 398 458 17,300 1,790 Climbing Denver Center
Thu 02:01:18 PM 39.5261 -105.7031 247° West 371 427 20,000 2,565 Climbing Denver Center
Thu 02:02:20 PM 39.4933 -105.8272 251° West 339 390 22,600 1,935 Climbing Denver Center
Thu 02:03:22 PM 39.4642 -105.9408 252° West 335 386 24,000 677 Climbing Denver Center
Thu 02:04:24 PM 39.4289 -106.0681 250° West 375 432 24,000  Level Denver Center
Thu 02:05:26 PM 39.3686 -106.2078 241° Southwest 415 478 24,000 -194 Level Denver Center
Thu 02:06:28 PM 39.2747 -106.2967 216° Southwest 435 501 23,600 -435 Descending Denver Center
Thu 02:07:30 PM 39.1617 -106.3986 215° Southwest 442 509 23,100 -919 Descending Denver Center
Thu 02:08:32 PM 39.0717 -106.4800 215° Southwest 421 484 21,700 -2,032 Descending Denver Center
Thu 02:09:34 PM 38.9828 -106.5606 215° Southwest 398 458 18,900 -2,419 Descending Denver Center
Thu 02:10:36 PM 38.8972 -106.6389 215° Southwest 386 444 16,700 -1,392 Descending Denver Center
Thu 02:11:39 PM 38.8128 -106.7147 215° Southwest 373 429 16,000 -336 Descending Denver Center
Thu 02:12:41 PM 38.7267 -106.7933 215° Southwest 376 433 16,000 -532 Level Denver Center
Thu 02:13:43 PM 38.6581 -106.8550 215° Southwest 314 361 14,900 -823 Descending Denver Center
Thu 02:14:45 PM 38.5917 -106.9261 220° Southwest 286 329 14,300 -581 Descending Denver Center

Login

Don't have an account? Register now (free) for customized features, flight alerts, and more!